createdAt,value
2023-06-07T16:44:22.467Z,24.61
2023-06-07T16:46:53.336Z,24.73
2023-06-07T16:49:20.816Z,24.65
2023-06-07T16:51:48.322Z,24.44
2023-06-07T16:54:16.704Z,24.26
2023-06-07T16:56:44.434Z,24.29
2023-06-07T16:59:12.862Z,24.29
2023-06-07T17:01:40.507Z,24.32
2023-06-07T17:04:08.093Z,24.32
2023-06-07T17:06:38.194Z,24.21
2023-06-07T17:09:06.176Z,24.03
2023-06-07T17:11:33.670Z,23.86
2023-06-07T17:14:01.296Z,23.67
2023-06-07T17:16:28.967Z,23.65
2023-06-07T17:18:56.566Z,23.65
2023-06-07T17:21:24.089Z,23.52
2023-06-07T17:23:51.655Z,23.31
2023-06-07T17:26:19.037Z,23.25
2023-06-07T17:28:46.575Z,23.27
2023-06-07T17:31:14.102Z,23.28
2023-06-07T17:33:42.400Z,23.29
2023-06-07T17:36:10.084Z,23.33
2023-06-07T17:38:37.782Z,23.40
2023-06-07T17:41:05.354Z,23.45
2023-06-07T17:43:32.773Z,23.50
2023-06-07T17:46:00.972Z,23.47
2023-06-07T17:48:28.609Z,23.31
2023-06-07T17:50:56.011Z,23.12
2023-06-07T17:53:23.332Z,22.99
2023-06-07T17:55:50.966Z,22.97
2023-06-07T17:58:18.535Z,22.97
2023-06-07T18:00:46.413Z,23.00
2023-06-07T18:03:19.645Z,23.02
2023-06-07T18:05:47.873Z,23.10
2023-06-07T18:08:15.583Z,23.14
2023-06-07T18:10:43.050Z,23.11
2023-06-07T18:13:10.768Z,23.09
2023-06-07T18:15:38.385Z,23.03
2023-06-07T18:18:07.484Z,22.90
2023-06-07T18:20:36.690Z,22.72
2023-06-07T18:23:04.608Z,22.59
2023-06-07T18:25:32.227Z,22.48
2023-06-07T18:27:59.763Z,22.32
2023-06-07T18:30:29.340Z,22.14
2023-06-07T18:32:57.301Z,22.00
2023-06-07T18:35:25.047Z,21.88
2023-06-07T18:37:52.629Z,21.77
2023-06-07T18:40:20.083Z,21.61
2023-06-07T18:42:47.388Z,21.48
2023-06-07T18:45:15.424Z,21.36
2023-06-07T18:47:42.994Z,21.19
2023-06-07T18:50:11.877Z,21.05
2023-06-07T18:52:39.581Z,20.87
2023-06-07T18:55:08.897Z,20.72
2023-06-07T18:57:37.159Z,20.61
2023-06-07T19:00:06.299Z,20.47
2023-06-07T19:02:34.211Z,20.31
2023-06-07T19:05:01.792Z,20.21
2023-06-07T19:07:29.398Z,20.13
2023-06-07T19:09:56.937Z,20.06
2023-06-07T19:12:27.225Z,19.95
2023-06-07T19:14:56.613Z,19.89
2023-06-07T19:17:24.247Z,19.81
2023-06-07T19:19:51.971Z,19.76
2023-06-07T19:22:19.473Z,19.69
2023-06-07T19:24:47.028Z,19.64
2023-06-07T19:27:14.748Z,19.55
2023-06-07T19:29:42.441Z,19.47
2023-06-07T19:32:10.360Z,19.40
2023-06-07T19:34:37.873Z,19.30
2023-06-07T19:37:06.718Z,19.21
2023-06-07T19:39:34.338Z,19.12
2023-06-07T19:42:06.409Z,19.07
2023-06-07T19:44:36.830Z,19.03
2023-06-07T19:47:05.053Z,19.05
2023-06-07T19:49:32.529Z,19.07
2023-06-07T19:52:00.486Z,19.07
2023-06-07T19:54:28.029Z,19.05
2023-06-07T19:56:55.524Z,19.05
2023-06-07T19:59:22.975Z,19.06
2023-06-07T20:01:50.684Z,19.06
2023-06-07T20:04:18.554Z,19.08
2023-06-07T20:06:46.425Z,19.10
2023-06-07T20:09:14.136Z,19.10
2023-06-07T20:11:42.012Z,19.10
2023-06-07T20:14:11.247Z,19.10
2023-06-07T20:16:38.903Z,19.09
2023-06-07T20:19:07.324Z,19.07
2023-06-07T20:21:35.010Z,19.05
2023-06-07T20:24:02.721Z,19.00
2023-06-07T20:26:30.401Z,18.96
2023-06-07T20:29:01.946Z,18.88
2023-06-07T20:31:29.688Z,18.86
2023-06-07T20:33:57.236Z,18.83
2023-06-07T20:36:26.812Z,18.79
2023-06-07T20:38:54.277Z,18.73
2023-06-07T20:41:21.790Z,18.66
2023-06-07T20:43:49.465Z,18.61
2023-06-07T20:46:17.138Z,18.54
2023-06-07T20:48:44.777Z,18.48
2023-06-07T20:51:12.191Z,18.43
2023-06-07T20:53:39.582Z,18.38
2023-06-07T20:56:07.031Z,18.33
2023-06-07T20:58:34.648Z,18.27
2023-06-07T21:01:02.139Z,18.20
2023-06-07T21:03:30.294Z,18.14
2023-06-07T21:05:57.861Z,18.08
2023-06-07T21:08:25.272Z,18.04
2023-06-07T21:10:53.289Z,18.00
2023-06-07T21:13:20.831Z,17.97
2023-06-07T21:15:48.490Z,17.94
2023-06-07T21:18:16.169Z,17.89
2023-06-07T21:20:43.846Z,17.85
2023-06-07T21:23:13.211Z,17.81
2023-06-07T21:25:40.977Z,17.77
2023-06-07T21:28:08.291Z,17.72
2023-06-07T21:30:35.845Z,17.67
2023-06-07T21:33:04.737Z,17.63
2023-06-07T21:35:33.208Z,17.59
2023-06-07T21:38:00.903Z,17.55
2023-06-07T21:40:28.625Z,17.52
2023-06-07T21:42:56.011Z,17.48
2023-06-07T21:45:28.829Z,17.47
2023-06-07T21:47:56.406Z,17.45
2023-06-07T21:50:24.697Z,17.43
2023-06-07T21:52:52.085Z,17.43
2023-06-07T21:55:19.883Z,17.43
2023-06-07T21:57:47.504Z,17.38
